Keene, CA

2:02 PM PST on December 08, 2016 (GMT -0800)
Deer Creek, Hart Flat, CA, US | | Change Station

Elev 2854 ft 35.25 °N, 118.61 °W | Updated 14 seconds ago

Overcast
Overcast
50.4 °F
Feels Like 50.4 °F
N
0.0
Wind Variable Wind from South
Gusts 1.0 mph

Today
High -- | Low -- °F
--% Chance of Precip.
Yesterday
High -- | Low -- °F
Precip. -- in
Pressure 30.22 in
Visibility 6.0 miles
Clouds Few 600 ft
Mostly Cloudy 1200 ft
Mostly Cloudy 1700 ft
Dew Point 50 °F
Humidity 100%
Rainfall 0.02 in
Snow Depth Not available.
6:50 AM 4:42 PM
Waxing Gibbous, 67% visible
METAR KTSP 082155Z AUTO 30008KT 6SM -RA FEW006 BKN012 BKN017 09/09 A3022 RMK AO2 P0001
Pressure 30.22 in
Visibility 6.0 miles
Clouds Few 600 ft
Mostly Cloudy 1200 ft
Mostly Cloudy 1700 ft
Dew Point 50 °F
Humidity 100%
Rainfall 0.02 in
Snow Depth Not available.
6:50 AM 4:42 PM
Waxing Gibbous, 67% visible
METAR KTSP 082155Z AUTO 30008KT 6SM -RA FEW006 BKN012 BKN017 09/09 A3022 RMK AO2 P0001

10-Day Weather Forecast

Almanac

Astronomy

Dec. 08, 2016 Rise Set
Actual Time
Civil Twilight
Nautical Twilight
Astronomical Twilight
Moon
Length of Visible Light
Length of Day
Tomorrow will be .
, % of the Moon is Illuminated

Today's Extremes

State Highs State Lows

Community

WunderPhotos

Upload Photos

1,956,277 photos uploaded!

WunderBlog® & News

Nearby

Air Quality

  Air Quality AQ Index Pollutant
Not available.

Snow Depth

Station Depth Elevation

Earthquake Activity

City Distance Mag. Time & Date
Minimum magnitude displayed is 2.5.

Coastal Water Temperatures

Place Temperature

Stations

Nearby Weather Stations

Station Location Temp. Windchill Dew Point Humidity Wind Precip. Elev Updated Type
                   

Watches & Warnings

There are currently no watches in effect.